BEL11T EDDH-EKBI
Flight info
| Callsign | BEL11T |
|---|---|
| Flight time | N/A |
| Altitude | 22000 |
| Route | SOKWO1G/33 SOKWO T814 EXNEL M105 AMRAK DCT LOKSA |
| Aircraft | A20N/M-SDE2E3FGHIRWXY/LB1 |
Departure
| Time | 2026-04-30 18:53 |
|---|---|
| Airport | Hamburg Helmut Schmidt Airport (EDDH) |
Arrival
| Time | N/A |
|---|---|
| Airport | Billund Airport (EKBI) |
| Time | Latitude | Longitude | Altitude | Speed | Heading |
|---|---|---|---|---|---|
| 2026-04-30 17:59 | 53.62939 | 9.99226 | 44 ft | 0 kts | 242° |
| 2026-04-30 18:36 | 53.62945 | 9.99243 | 44 ft | 3 kts | 242° |
| 2026-04-30 18:37 | 53.62954 | 9.99272 | 42 ft | 3 kts | 242° |
| 2026-04-30 18:37 | 53.62964 | 9.99302 | 41 ft | 3 kts | 242° |
| 2026-04-30 18:37 | 53.62972 | 9.99327 | 41 ft | 0 kts | 213° |
| 2026-04-30 18:38 | 53.62989 | 9.99335 | 42 ft | 3 kts | 147° |
| 2026-04-30 18:39 | 53.62972 | 9.99346 | 41 ft | 8 kts | 155° |
| 2026-04-30 18:39 | 53.62943 | 9.99368 | 43 ft | 0 kts | 155° |
| 2026-04-30 18:41 | 53.62923 | 9.99384 | 42 ft | 8 kts | 155° |
| 2026-04-30 18:41 | 53.62852 | 9.99446 | 43 ft | 10 kts | 148° |
| 2026-04-30 18:41 | 53.62762 | 9.99525 | 44 ft | 18 kts | 153° |
| 2026-04-30 18:42 | 53.62666 | 9.99609 | 46 ft | 12 kts | 150° |
| 2026-04-30 18:42 | 53.62639 | 9.99691 | 46 ft | 1 kts | 97° |
| 2026-04-30 18:42 | 53.62639 | 9.99747 | 46 ft | 0 kts | 83° |
| 2026-04-30 18:51 | 53.62640 | 9.99755 | 47 ft | 4 kts | 80° |
| 2026-04-30 18:52 | 53.62708 | 9.99859 | 47 ft | 21 kts | 5° |
| 2026-04-30 18:52 | 53.62786 | 9.99813 | 45 ft | 2 kts | 331° |
| 2026-04-30 18:52 | 53.62858 | 9.99750 | 45 ft | 23 kts | 332° |
| 2026-04-30 18:52 | 53.62929 | 9.99692 | 47 ft | 0 kts | 333° |
| 2026-04-30 18:53 | 53.63017 | 9.99615 | 45 ft | 60 kts | 333° |
| 2026-04-30 18:53 | 53.63723 | 9.99000 | 47 ft | 164 kts | 332° |
| 2026-04-30 18:53 | 53.64812 | 9.98044 | 937 ft | 185 kts | 331° |
| 2026-04-30 18:53 | 53.65952 | 9.97042 | 2144 ft | 192 kts | 332° |
| 2026-04-30 18:54 | 53.67217 | 9.95971 | 3105 ft | 211 kts | 333° |
| 2026-04-30 18:54 | 53.68697 | 9.94898 | 3532 ft | 256 kts | 344° |
| 2026-04-30 18:54 | 53.70425 | 9.94600 | 3649 ft | 246 kts | 0° |
| 2026-04-30 18:54 | 53.72069 | 9.94652 | 3747 ft | 226 kts | 1° |
| 2026-04-30 18:55 | 53.73606 | 9.95083 | 3836 ft | 229 kts | 20° |
| 2026-04-30 18:55 | 53.76426 | 9.97979 | 5659 ft | 257 kts | 32° |
| 2026-04-30 18:55 | 53.77983 | 9.99662 | 6840 ft | 271 kts | 32° |
| 2026-04-30 18:56 | 53.81252 | 10.03193 | 7473 ft | 279 kts | 32° |
| 2026-04-30 18:56 | 53.82893 | 10.04978 | 7589 ft | 280 kts | 32° |
| 2026-04-30 18:56 | 53.84542 | 10.06779 | 7894 ft | 284 kts | 32° |
| 2026-04-30 18:57 | 53.87911 | 10.10433 | 8760 ft | 287 kts | 28° |
| 2026-04-30 18:57 | 53.89800 | 10.11426 | 8936 ft | 284 kts | 5° |
| 2026-04-30 18:57 | 53.91762 | 10.11111 | 9193 ft | 285 kts | 346° |
| 2026-04-30 18:58 | 53.95627 | 10.09482 | 9694 ft | 287 kts | 345° |
| 2026-04-30 18:58 | 53.97571 | 10.08654 | 9903 ft | 289 kts | 345° |
| 2026-04-30 18:58 | 53.99522 | 10.07824 | 9985 ft | 288 kts | 345° |
| 2026-04-30 18:59 | 54.03587 | 10.06099 | 9998 ft | 329 kts | 346° |
| 2026-04-30 19:00 | 54.09768 | 10.03471 | 9999 ft | 290 kts | 341° |
| 2026-04-30 19:00 | 54.11680 | 10.01818 | 9998 ft | 316 kts | 323° |
| 2026-04-30 19:00 | 54.14531 | 9.96750 | 10117 ft | 279 kts | 311° |
| 2026-04-30 19:01 | 54.16983 | 9.92069 | 11746 ft | 252 kts | 311° |
| 2026-04-30 19:01 | 54.18119 | 9.89907 | 13344 ft | 236 kts | 311° |
| 2026-04-30 19:02 | 54.20250 | 9.85850 | 14667 ft | 219 kts | 311° |
| 2026-04-30 19:02 | 54.22282 | 9.81975 | 14901 ft | 220 kts | 311° |
| 2026-04-30 19:03 | 54.24344 | 9.78094 | 15153 ft | 223 kts | 317° |
| 2026-04-30 19:03 | 54.26891 | 9.74879 | 16154 ft | 232 kts | 323° |
| 2026-04-30 19:04 | 54.29405 | 9.71744 | 16367 ft | 225 kts | 323° |
| 2026-04-30 19:04 | 54.31937 | 9.68570 | 16589 ft | 226 kts | 323° |
| 2026-04-30 19:05 | 54.34477 | 9.65391 | 16810 ft | 226 kts | 323° |
| 2026-04-30 19:05 | 54.37096 | 9.62305 | 17011 ft | 246 kts | 338° |
| 2026-04-30 19:06 | 54.40764 | 9.62303 | 17000 ft | 271 kts | 12° |
| 2026-04-30 19:06 | 54.42601 | 9.63057 | 17000 ft | 271 kts | 13° |
| 2026-04-30 19:06 | 54.46260 | 9.64525 | 17000 ft | 272 kts | 12° |
| 2026-04-30 19:07 | 54.49966 | 9.65805 | 17000 ft | 272 kts | 11° |
| 2026-04-30 19:07 | 54.51821 | 9.66415 | 17000 ft | 271 kts | 10° |
| 2026-04-30 19:08 | 54.55608 | 9.67626 | 17005 ft | 303 kts | 10° |
| 2026-04-30 19:08 | 54.60260 | 9.69085 | 17000 ft | 358 kts | 10° |
| 2026-04-30 19:08 | 54.62713 | 9.69861 | 17000 ft | 358 kts | 10° |
| 2026-04-30 19:09 | 54.67635 | 9.71352 | 17000 ft | 359 kts | 8° |
| 2026-04-30 19:09 | 54.70104 | 9.71969 | 17000 ft | 359 kts | 7° |
| 2026-04-30 19:09 | 54.72578 | 9.72569 | 17000 ft | 359 kts | 7° |
| 2026-04-30 19:10 | 54.77516 | 9.73796 | 17000 ft | 359 kts | 8° |
| 2026-04-30 19:10 | 54.82470 | 9.74751 | 16983 ft | 358 kts | 359° |
| 2026-04-30 19:11 | 54.84933 | 9.74447 | 16918 ft | 351 kts | 351° |
| 2026-04-30 19:11 | 54.89576 | 9.73250 | 16682 ft | 323 kts | 351° |
| 2026-04-30 19:11 | 54.91748 | 9.72711 | 16543 ft | 309 kts | 351° |
| 2026-04-30 19:12 | 54.93825 | 9.72194 | 16176 ft | 304 kts | 351° |
| 2026-04-30 19:12 | 54.95911 | 9.71673 | 15736 ft | 302 kts | 351° |
| 2026-04-30 19:12 | 54.97983 | 9.71152 | 15293 ft | 300 kts | 351° |
| 2026-04-30 19:13 | 55.02088 | 9.70117 | 14414 ft | 296 kts | 351° |
| 2026-04-30 19:13 | 55.06111 | 9.69099 | 13898 ft | 293 kts | 351° |
| 2026-04-30 19:13 | 55.08146 | 9.68583 | 13813 ft | 294 kts | 351° |
| 2026-04-30 19:14 | 55.10158 | 9.68073 | 13607 ft | 291 kts | 351° |
| 2026-04-30 19:14 | 55.12159 | 9.67565 | 13197 ft | 290 kts | 351° |
| 2026-04-30 19:14 | 55.14150 | 9.67059 | 12764 ft | 288 kts | 351° |
| 2026-04-30 19:14 | 55.16130 | 9.66556 | 12330 ft | 286 kts | 351° |
| 2026-04-30 19:15 | 55.18100 | 9.66054 | 11898 ft | 285 kts | 351° |
| 2026-04-30 19:15 | 55.22000 | 9.65060 | 11029 ft | 281 kts | 351° |
| 2026-04-30 19:15 | 55.23930 | 9.64567 | 10599 ft | 279 kts | 351° |
| 2026-04-30 19:16 | 55.25846 | 9.64077 | 10168 ft | 277 kts | 351° |
| 2026-04-30 19:16 | 55.27730 | 9.63595 | 9746 ft | 276 kts | 351° |
| 2026-04-30 19:16 | 55.31501 | 9.62629 | 8889 ft | 272 kts | 351° |
| 2026-04-30 19:17 | 55.33372 | 9.62149 | 8461 ft | 271 kts | 351° |
| 2026-04-30 19:17 | 55.37177 | 9.61171 | 7328 ft | 277 kts | 351° |
| 2026-04-30 19:17 | 55.39083 | 9.60681 | 6879 ft | 275 kts | 351° |
| 2026-04-30 19:18 | 55.41572 | 9.60041 | 6723 ft | 278 kts | 351° |
| 2026-04-30 19:18 | 55.44725 | 9.59228 | 6564 ft | 274 kts | 351° |
| 2026-04-30 19:18 | 55.46612 | 9.58740 | 6474 ft | 274 kts | 351° |
| 2026-04-30 19:19 | 55.48509 | 9.58250 | 6171 ft | 274 kts | 351° |
| 2026-04-30 19:19 | 55.50401 | 9.57760 | 5665 ft | 275 kts | 351° |
| 2026-04-30 19:19 | 55.54185 | 9.56780 | 4667 ft | 274 kts | 351° |
| 2026-04-30 19:20 | 55.56070 | 9.56291 | 4169 ft | 273 kts | 351° |
| 2026-04-30 19:20 | 55.57948 | 9.55803 | 3669 ft | 273 kts | 351° |
| 2026-04-30 19:20 | 55.61692 | 9.54829 | 2668 ft | 271 kts | 351° |
| 2026-04-30 19:21 | 55.63532 | 9.54349 | 2200 ft | 269 kts | 351° |
| 2026-04-30 19:21 | 55.67100 | 9.53419 | 2026 ft | 256 kts | 351° |
| 2026-04-30 19:22 | 55.70451 | 9.52545 | 1842 ft | 231 kts | 351° |
| 2026-04-30 19:22 | 55.74431 | 9.50065 | 1833 ft | 182 kts | 302° |
| 2026-04-30 19:23 | 55.74960 | 9.44796 | 1839 ft | 133 kts | 268° |
| 2026-04-30 19:24 | 55.74863 | 9.41506 | 1840 ft | 133 kts | 266° |
| 2026-04-30 19:24 | 55.74811 | 9.39862 | 1839 ft | 133 kts | 266° |
| 2026-04-30 19:24 | 55.74707 | 9.36577 | 1840 ft | 133 kts | 266° |
| 2026-04-30 19:25 | 55.74570 | 9.32234 | 1579 ft | 133 kts | 266° |
| 2026-04-30 19:26 | 55.74458 | 9.28680 | 426 ft | 158 kts | 267° |